Time;durP1;ratioP1;P1;durP2;ratioP2;P2;SDS_P1;SDS_P2;PMS_P1;PMS_P2;Temp;Humidity;BMP_temperature;BMP_pressure;BME280_temperature;BME280_humidity;BME280_pressure;Samples;Min_cycle;Max_cycle;Signal;HPM_P1;HPM_P2
2022/06/02 00:00:14;;;;;;;6.70;6.10;;;9.80;99.90;;;;;;5038452;28;20045;-73
2022/06/02 00:02:55;;;;;;;6.10;4.70;;;9.80;99.90;;;;;;5024819;28;20037;-73
2022/06/02 00:05:33;;;;;;;7.88;6.30;;;9.70;99.90;;;;;;5024465;28;20056;-73
2022/06/02 00:08:12;;;;;;;7.95;7.25;;;9.70;99.90;;;;;;5008635;28;20416;-73
2022/06/02 00:11:01;;;;;;;7.25;6.38;;;9.70;99.90;;;;;;5025327;28;20467;-73
2022/06/02 00:13:37;;;;;;;6.57;5.97;;;9.70;99.90;;;;;;5023144;28;20492;-73
2022/06/02 00:16:09;;;;;;;103.68;9.25;;;9.60;99.90;;;;;;5026508;28;20484;-73
2022/06/02 00:18:53;;;;;;;48.92;7.18;;;9.60;99.90;;;;;;5024164;28;20054;-73
2022/06/02 00:21:25;;;;;;;21.85;6.50;;;9.50;99.90;;;;;;5024306;28;20436;-73
2022/06/02 00:24:12;;;;;;;9.18;7.03;;;9.40;99.90;;;;;;5025638;28;20107;-73
2022/06/02 00:27:02;;;;;;;9.95;9.02;;;9.40;99.90;;;;;;5023716;28;20373;-73
2022/06/02 00:29:50;;;;;;;30.80;7.75;;;9.40;99.90;;;;;;5022819;28;20045;-73
2022/06/02 00:32:32;;;;;;;389.75;11.10;;;9.40;99.90;;;;;;5025440;28;20068;-73
2022/06/02 00:35:16;;;;;;;220.02;6.75;;;9.40;99.90;;;;;;5024211;28;20072;-73
2022/06/02 00:37:51;;;;;;;160.95;6.68;;;9.10;99.90;;;;;;5041687;28;20134;-73
2022/06/02 00:40:17;;;;;;;114.05;5.95;;;9.00;99.90;;;;;;5023728;28;20088;-73
2022/06/02 00:43:15;;;;;;;85.90;5.30;;;8.90;99.90;;;;;;5026002;28;20041;-73
2022/06/02 00:45:43;;;;;;;102.45;7.72;;;8.90;99.90;;;;;;5023499;28;20072;-73
2022/06/02 00:48:21;;;;;;;23.27;5.65;;;8.80;99.90;;;;;;5025174;28;20033;-73
2022/06/02 00:51:02;;;;;;;11.88;6.10;;;8.80;99.90;;;;;;5023479;28;20048;-73
2022/06/02 00:53:36;;;;;;;6.50;5.90;;;8.70;99.90;;;;;;5024307;28;20045;-73
2022/06/02 00:59:43;;;;;;;6.57;5.97;;;8.80;99.90;;;;;;5037070;28;20197;-73
2022/06/02 01:02:09;;;;;;;6.28;5.72;;;8.80;99.90;;;;;;5025216;28;20099;-73
2022/06/02 01:04:38;;;;;;;5.65;5.15;;;8.80;99.90;;;;;;5025310;28;20526;-73
2022/06/02 01:07:30;;;;;;;6.15;5.55;;;8.80;99.90;;;;;;5020507;28;20068;-73
2022/06/02 01:10:08;;;;;;;7.93;6.57;;;8.80;99.90;;;;;;5022484;28;20366;-73
2022/06/02 01:12:58;;;;;;;8.77;7.80;;;8.80;99.90;;;;;;5024258;28;20091;-73
2022/06/02 01:15:39;;;;;;;7.75;7.05;;;8.80;99.90;;;;;;5024503;28;20183;-73
2022/06/02 01:18:23;;;;;;;8.65;7.85;;;8.80;99.90;;;;;;5019415;28;20052;-73
2022/06/02 01:20:59;;;;;;;7.10;6.40;;;8.80;99.90;;;;;;5039393;28;20061;-73
2022/06/02 01:23:55;;;;;;;7.03;5.47;;;8.80;99.90;;;;;;5024327;28;20049;-73
2022/06/02 01:26:45;;;;;;;5.88;4.70;;;8.80;99.90;;;;;;5023096;28;20045;-73
2022/06/02 01:29:23;;;;;;;6.40;5.88;;;8.80;99.90;;;;;;5024303;28;20132;-73
2022/06/02 01:32:01;;;;;;;8.23;7.43;;;8.70;99.90;;;;;;5019925;28;20068;-73
2022/06/02 01:34:36;;;;;;;10.32;7.57;;;8.70;99.90;;;;;;5022105;28;20099;-73
2022/06/02 01:37:21;;;;;;;8.45;7.65;;;8.70;99.90;;;;;;5021779;28;20038;-73
2022/06/02 01:39:58;;;;;;;8.77;8.00;;;8.70;99.90;;;;;;5024179;28;20029;-73
2022/06/02 01:42:41;;;;;;;8.75;7.95;;;8.70;99.90;;;;;;5021662;28;20033;-73
2022/06/02 01:45:15;;;;;;;9.30;8.40;;;8.70;99.90;;;;;;5036080;28;20030;-73
2022/06/02 01:47:43;;;;;;;9.48;8.68;;;8.70;99.90;;;;;;5021400;28;20045;-73
2022/06/02 01:50:38;;;;;;;12.07;9.13;;;8.70;99.90;;;;;;5023365;28;20055;-73
2022/06/02 01:53:21;;;;;;;10.05;9.05;;;8.70;99.90;;;;;;5025015;28;20044;-73
2022/06/02 01:56:11;;;;;;;90.38;11.13;;;8.60;99.90;;;;;;5021604;28;20041;-73
2022/06/02 01:58:56;;;;;;;10.45;9.45;;;8.60;99.90;;;;;;5023608;28;20499;-73
2022/06/02 02:01:47;;;;;;;12.57;10.48;;;8.50;99.90;;;;;;5022704;28;20092;-73
2022/06/02 02:04:23;;;;;;;22.60;9.52;;;8.60;99.90;;;;;;5022404;28;20130;-73
2022/06/02 02:07:33;;;;;;;10.90;9.70;;;8.50;99.90;;;;;;5021126;28;20037;-73
2022/06/02 02:10:20;;;;;;;11.95;10.02;;;8.50;99.90;;;;;;4939162;28;20051;-73
2022/06/02 02:13:07;;;;;;;11.32;9.73;;;8.50;99.90;;;;;;5039002;28;20050;-73
2022/06/02 02:15:50;;;;;;;10.52;9.40;;;8.50;99.90;;;;;;5040285;28;20049;-73
2022/06/02 02:18:42;;;;;;;11.20;10.10;;;8.50;99.90;;;;;;5020009;28;20037;-73
2022/06/02 02:21:27;;;;;;;11.32;10.23;;;8.40;99.90;;;;;;4985666;28;20141;-73
2022/06/02 02:24:01;;;;;;;11.95;10.77;;;8.40;99.90;;;;;;5022345;28;20049;-73
2022/06/02 02:26:43;;;;;;;12.45;11.15;;;8.40;99.90;;;;;;5022582;28;20037;-73
2022/06/02 02:29:43;;;;;;;13.03;11.83;;;8.40;99.90;;;;;;5023323;28;20049;-73
2022/06/02 02:33:10;;;;;;;13.15;11.93;;;8.40;99.90;;;;;;5022392;28;20300;-73
2022/06/02 02:35:44;;;;;;;320.60;12.65;;;8.40;99.90;;;;;;4963485;28;20053;-73
2022/06/02 02:38:38;;;;;;;97.38;7.25;;;8.30;99.90;;;;;;5012412;28;20545;-73
2022/06/02 02:41:09;;;;;;;47.88;6.15;;;8.20;99.90;;;;;;5021391;28;20041;-73
2022/06/02 02:43:52;;;;;;;53.63;7.45;;;8.10;99.90;;;;;;5023775;28;20083;-73
2022/06/02 02:46:37;;;;;;;8.02;7.22;;;8.00;99.90;;;;;;5021467;28;20119;-73
2022/06/02 02:49:41;;;;;;;22.15;8.80;;;8.00;99.90;;;;;;5022443;28;20511;-73
2022/06/02 02:52:40;;;;;;;7.97;7.28;;;7.90;99.90;;;;;;5023572;28;20033;-73
2022/06/02 02:55:14;;;;;;;10.18;8.55;;;7.90;99.90;;;;;;5023204;28;20077;-73
2022/06/02 02:57:40;;;;;;;8.60;7.78;;;7.90;99.90;;;;;;5024685;28;20038;-73
2022/06/02 03:00:25;;;;;;;9.48;8.63;;;8.00;99.90;;;;;;5027325;28;20111;-72
2022/06/02 03:03:13;;;;;;;9.45;8.55;;;8.00;99.90;;;;;;5042986;28;20068;-72
2022/06/02 03:05:56;;;;;;;9.95;9.05;;;8.00;99.90;;;;;;5025267;28;20040;-73
2022/06/02 03:08:46;;;;;;;11.80;9.10;;;8.00;99.90;;;;;;5024949;28;20045;-73
2022/06/02 03:11:31;;;;;;;14.98;8.52;;;8.00;99.90;;;;;;5007633;28;20080;-73
2022/06/02 03:14:22;;;;;;;17.63;8.60;;;8.00;99.90;;;;;;5010739;28;20258;-73
2022/06/02 03:16:55;;;;;;;180.95;11.43;;;7.90;99.90;;;;;;5011146;28;20065;-72
2022/06/02 03:19:47;;;;;;;21.10;8.43;;;7.90;99.90;;;;;;5026119;28;20116;-73
2022/06/02 03:22:48;;;;;;;9.95;8.43;;;7.90;99.90;;;;;;5021807;28;20045;-73
2022/06/02 03:25:31;;;;;;;167.27;11.32;;;7.90;99.90;;;;;;5026918;28;20041;-72
2022/06/02 03:28:15;;;;;;;278.23;10.85;;;7.90;99.90;;;;;;5041215;28;20137;-73
2022/06/02 03:31:00;;;;;;;276.35;9.10;;;7.80;99.90;;;;;;5022786;28;20099;-72
2022/06/02 03:33:38;;;;;;;77.90;4.57;;;7.70;99.90;;;;;;5025911;28;20067;-72
2022/06/02 03:36:11;;;;;;;23.05;4.30;;;7.60;99.90;;;;;;5042309;28;20041;-73
2022/06/02 03:39:06;;;;;;;4.15;3.78;;;7.50;99.90;;;;;;5026505;28;20044;-73
2022/06/02 03:41:47;;;;;;;4.85;4.45;;;7.50;99.90;;;;;;5025155;28;20061;-72
2022/06/02 03:44:33;;;;;;;15.77;5.15;;;7.50;99.90;;;;;;5025495;28;20045;-73
2022/06/02 03:47:11;;;;;;;16.13;6.85;;;7.40;99.90;;;;;;5024067;28;20049;-73
2022/06/02 03:49:52;;;;;;;40.58;6.85;;;7.40;99.90;;;;;;5023820;28;20048;-73
2022/06/02 03:52:31;;;;;;;15.07;6.20;;;7.40;99.90;;;;;;5026352;28;20029;-72
2022/06/02 03:55:15;;;;;;;22.60;6.85;;;7.40;99.90;;;;;;5025385;28;20041;-72
2022/06/02 03:58:21;;;;;;;28.27;6.43;;;7.50;99.90;;;;;;5028882;28;20041;-72
2022/06/02 04:00:49;;;;;;;11.00;6.28;;;7.50;99.90;;;;;;5024347;28;20038;-73
2022/06/02 04:03:23;;;;;;;16.90;6.97;;;7.50;99.90;;;;;;5024707;28;20439;-73
2022/06/02 04:06:07;;;;;;;222.40;11.35;;;7.50;99.90;;;;;;5026606;28;20983;-73
2022/06/02 04:08:42;;;;;;;28.08;7.10;;;7.60;99.90;;;;;;5027271;28;20041;-73
2022/06/02 04:11:22;;;;;;;9.82;7.28;;;7.60;99.90;;;;;;5022894;28;20128;-73
2022/06/02 04:14:11;;;;;;;23.98;7.25;;;7.50;99.90;;;;;;5040325;28;20045;-73
2022/06/02 04:17:01;;;;;;;11.88;7.40;;;7.60;99.90;;;;;;5025538;28;20053;-73
2022/06/02 04:23:26;;;;;;;7.28;6.57;;;7.50;99.90;;;;;;5025991;28;20042;-72
2022/06/02 04:25:59;;;;;;;7.25;6.65;;;7.50;99.90;;;;;;5021027;28;20088;-72
2022/06/02 04:28:41;;;;;;;7.22;6.53;;;7.50;99.90;;;;;;5025728;28;20144;-73
2022/06/02 04:31:10;;;;;;;7.97;6.82;;;7.50;99.90;;;;;;5024992;28;20144;-73
2022/06/02 04:33:42;;;;;;;9.38;8.32;;;7.50;99.90;;;;;;5025979;28;20155;-72
2022/06/02 04:36:15;;;;;;;10.38;9.38;;;7.60;99.90;;;;;;5041603;28;20049;-72
2022/06/02 04:39:12;;;;;;;10.93;9.93;;;7.70;99.90;;;;;;5027769;28;20049;-73
2022/06/02 04:42:03;;;;;;;10.40;9.25;;;7.70;99.90;;;;;;5023672;28;21043;-73
2022/06/02 04:44:45;;;;;;;16.65;14.82;;;7.80;99.90;;;;;;5021935;28;20041;-73
2022/06/02 04:47:45;;;;;;;15.38;13.88;;;7.90;99.90;;;;;;5027228;28;20037;-73
2022/06/02 04:50:42;;;;;;;21.00;14.15;;;7.90;99.90;;;;;;5025663;28;20046;-72
2022/06/02 04:53:14;;;;;;;19.38;15.32;;;8.00;99.90;;;;;;5023199;28;20052;-74
2022/06/02 04:56:07;;;;;;;24.00;17.45;;;8.10;99.90;;;;;;5022375;28;20053;-73
2022/06/02 04:58:51;;;;;;;25.27;19.15;;;8.20;99.90;;;;;;5040250;28;20045;-72
2022/06/02 05:01:34;;;;;;;26.63;18.98;;;8.20;99.90;;;;;;5034198;28;20128;-72
2022/06/02 05:04:22;;;;;;;27.55;19.80;;;8.30;99.90;;;;;;5025447;28;20484;-74
2022/06/02 05:06:53;;;;;;;24.38;19.25;;;8.40;99.90;;;;;;5020602;28;20037;-73
2022/06/02 05:09:56;;;;;;;22.67;19.73;;;8.40;99.90;;;;;;5007221;28;20052;-72
2022/06/02 05:12:33;;;;;;;21.42;17.85;;;8.50;99.90;;;;;;5040234;28;20037;-72
2022/06/02 05:15:20;;;;;;;20.75;17.85;;;8.50;99.90;;;;;;5020818;28;20045;-73
2022/06/02 05:18:17;;;;;;;19.70;16.10;;;8.60;99.90;;;;;;5024617;28;20041;-73
2022/06/02 05:20:58;;;;;;;21.88;18.23;;;8.70;99.90;;;;;;5024285;28;20052;-73
2022/06/02 05:23:34;;;;;;;27.48;23.05;;;8.80;99.90;;;;;;5024797;28;21283;-73
2022/06/02 05:26:21;;;;;;;27.98;22.35;;;8.90;99.90;;;;;;5021195;28;20033;-73
2022/06/02 05:28:56;;;;;;;26.10;21.38;;;9.10;99.90;;;;;;5024402;28;20041;-73
2022/06/02 05:31:58;;;;;;;27.80;21.02;;;9.20;99.90;;;;;;5025684;28;20468;-72
2022/06/02 05:34:41;;;;;;;24.63;21.00;;;9.30;99.90;;;;;;5021828;28;20053;-72
2022/06/02 05:37:48;;;;;;;26.25;20.48;;;9.50;99.90;;;;;;5024822;28;20057;-73
2022/06/02 05:40:38;;;;;;;24.60;20.55;;;9.60;99.90;;;;;;4993898;28;20057;-73
2022/06/02 05:43:22;;;;;;;21.60;18.58;;;9.70;99.90;;;;;;5025530;28;20038;-73
2022/06/02 05:46:14;;;;;;;23.73;19.25;;;9.80;99.90;;;;;;5044088;28;20037;-73
2022/06/02 05:49:06;;;;;;;21.15;18.70;;;10.00;99.90;;;;;;5022375;28;20120;-73
2022/06/02 05:51:47;;;;;;;22.30;16.65;;;10.10;99.90;;;;;;5020890;28;20060;-73
2022/06/02 05:54:39;;;;;;;20.85;17.00;;;10.30;99.90;;;;;;5018998;28;20041;-73
2022/06/02 05:57:26;;;;;;;20.55;17.02;;;10.40;99.90;;;;;;5022372;28;20037;-73
2022/06/02 06:00:07;;;;;;;16.70;15.00;;;10.50;99.90;;;;;;5021425;28;20037;-73
2022/06/02 06:02:44;;;;;;;18.98;14.40;;;10.60;99.90;;;;;;5021756;28;20049;-73
2022/06/02 06:05:41;;;;;;;16.92;14.23;;;10.70;99.90;;;;;;5035125;28;20053;-73
2022/06/02 06:08:25;;;;;;;15.05;13.23;;;10.90;99.90;;;;;;5021589;28;20052;-74
2022/06/02 06:11:08;;;;;;;18.52;13.00;;;10.90;99.90;;;;;;5020111;28;20044;-73
2022/06/02 06:13:40;;;;;;;;;;;11.10;99.90;;;;;;5029335;28;20052;-75
2022/06/02 06:16:35;;;;;;;12.20;10.98;;;11.20;99.90;;;;;;5044202;28;20016;-74
2022/06/02 06:19:10;;;;;;;13.32;11.68;;;11.30;99.90;;;;;;5019525;28;20081;-74
2022/06/02 06:22:06;;;;;;;12.35;10.45;;;11.40;99.90;;;;;;5026022;28;20038;-73
2022/06/02 06:25:16;;;;;;;11.52;10.00;;;11.50;99.90;;;;;;5022583;28;20040;-74
2022/06/02 06:28:04;;;;;;;11.10;9.60;;;11.60;99.90;;;;;;5023263;28;20037;-73
2022/06/02 06:31:01;;;;;;;12.90;9.93;;;11.80;99.90;;;;;;5028908;28;20069;-73
2022/06/02 06:33:45;;;;;;;12.85;9.68;;;11.90;99.90;;;;;;5030535;28;20065;-73
2022/06/02 06:36:56;;;;;;;10.75;9.60;;;11.90;99.90;;;;;;5028130;28;20400;-73
2022/06/02 06:39:29;;;;;;;9.90;9.00;;;12.10;99.90;;;;;;5026672;28;20132;-73
2022/06/02 06:42:31;;;;;;;9.60;8.70;;;12.10;99.90;;;;;;5031994;28;20046;-73
2022/06/02 06:45:07;;;;;;;11.02;8.15;;;12.30;99.90;;;;;;5027588;28;20037;-73
2022/06/02 06:47:44;;;;;;;12.25;9.88;;;12.40;99.90;;;;;;5033172;28;20033;-72
2022/06/02 06:50:16;;;;;;;9.20;8.20;;;12.50;99.90;;;;;;5030351;28;20030;-73
2022/06/02 06:53:07;;;;;;;8.27;7.43;;;12.60;99.90;;;;;;5031825;28;20033;-72
2022/06/02 06:55:57;;;;;;;8.55;6.88;;;12.70;99.90;;;;;;5030693;28;20049;-72
2022/06/02 06:58:35;;;;;;;7.82;6.75;;;12.80;99.90;;;;;;5023683;28;20041;-72
2022/06/02 07:01:06;;;;;;;9.55;5.53;;;12.90;99.90;;;;;;5021868;28;20132;-72
2022/06/02 07:03:57;;;;;;;6.72;5.13;;;13.00;99.90;;;;;;5028543;28;20041;-72
2022/06/02 07:06:45;;;;;;;7.22;5.93;;;13.00;99.90;;;;;;5029382;28;20049;-72
2022/06/02 07:09:44;;;;;;;14.38;5.80;;;13.00;99.90;;;;;;5031242;28;20038;-72
2022/06/02 07:15:33;;;;;;;4.00;3.60;;;13.30;99.90;;;;;;5028823;28;20088;-72
2022/06/02 07:18:23;;;;;;;4.95;3.28;;;13.50;99.90;;;;;;5030881;28;20439;-72
2022/06/02 07:20:59;;;;;;;6.25;2.95;;;13.80;99.90;;;;;;5028842;28;20037;-73
2022/06/02 07:23:54;;;;;;;3.30;2.60;;;13.90;99.90;;;;;;5031332;28;20052;-72
2022/06/02 07:26:50;;;;;;;3.05;2.50;;;14.10;99.90;;;;;;5029942;28;20119;-72
2022/06/02 07:30:11;;;;;;;5.25;2.83;;;14.20;99.90;;;;;;5027147;28;20038;-72
2022/06/02 07:33:17;;;;;;;3.58;2.58;;;14.30;99.90;;;;;;4958604;28;20074;-72
2022/06/02 07:36:07;;;;;;;6.60;3.20;;;14.50;99.90;;;;;;5028673;28;20041;-72
2022/06/02 07:38:45;;;;;;;4.78;3.08;;;14.50;99.90;;;;;;5027848;28;20128;-72
2022/06/02 07:41:28;;;;;;;3.72;3.05;;;14.60;99.90;;;;;;5031174;28;20504;-72
2022/06/02 07:44:24;;;;;;;3.83;2.78;;;14.70;99.90;;;;;;5032426;28;20076;-72
2022/06/02 07:47:30;;;;;;;4.78;2.30;;;14.90;99.90;;;;;;5031720;28;20077;-72
2022/06/02 07:50:22;;;;;;;3.67;2.42;;;15.10;99.90;;;;;;5046513;28;20037;-73
2022/06/02 07:53:17;;;;;;;3.30;2.22;;;15.20;99.90;;;;;;5032646;28;20033;-72
2022/06/02 07:56:06;;;;;;;3.05;2.40;;;15.20;99.90;;;;;;5022189;28;20038;-72
2022/06/02 07:59:09;;;;;;;4.55;2.20;;;15.30;99.90;;;;;;5026198;28;20038;-72
2022/06/02 08:02:06;;;;;;;3.47;2.10;;;15.60;99.90;;;;;;5031568;28;20042;-72
2022/06/02 08:04:50;;;;;;;3.97;2.00;;;15.70;99.90;;;;;;5013955;28;20042;-72
2022/06/02 08:07:24;;;;;;;2.33;2.10;;;15.60;99.90;;;;;;5028969;28;20577;-72
2022/06/02 08:10:00;;;;;;;4.15;2.50;;;15.50;99.90;;;;;;5030468;28;20060;-72
2022/06/02 08:13:04;;;;;;;3.97;2.58;;;15.50;99.90;;;;;;5031442;28;20121;-73
2022/06/02 08:15:36;;;;;;;4.85;2.60;;;15.70;99.90;;;;;;5029974;28;20423;-73
2022/06/02 08:18:27;;;;;;;2.47;2.05;;;16.00;99.90;;;;;;5028095;28;20465;-73
2022/06/02 08:21:15;;;;;;;2.67;2.13;;;16.20;99.90;;;;;;5045628;28;20488;-73
2022/06/02 08:24:17;;;;;;;4.50;2.30;;;16.50;99.90;;;;;;5027304;28;20488;-73
2022/06/02 08:27:07;;;;;;;5.38;2.38;;;16.50;99.90;;;;;;5021059;28;20492;-73
2022/06/02 08:29:55;;;;;;;5.78;2.60;;;16.50;99.90;;;;;;5030118;28;20495;-73
2022/06/02 08:32:58;;;;;;;2.80;1.95;;;16.50;99.90;;;;;;5030734;28;20488;-73
2022/06/02 08:35:26;;;;;;;3.53;1.90;;;16.70;99.90;;;;;;5028256;28;20454;-73
2022/06/02 08:38:15;;;;;;;3.50;1.80;;;16.80;99.90;;;;;;5027613;28;20621;-73
2022/06/02 08:41:27;;;;;;;5.38;1.60;;;17.00;99.90;;;;;;5026759;28;20076;-73
2022/06/02 08:44:32;;;;;;;1.98;1.45;;;17.00;99.90;;;;;;5023160;28;20543;-73
2022/06/02 08:47:20;;;;;;;6.75;2.00;;;17.10;99.90;;;;;;4999315;28;20412;-73
2022/06/02 08:49:54;;;;;;;3.03;1.55;;;17.00;99.90;;;;;;5030982;28;20526;-73
2022/06/02 08:52:56;;;;;;;2.45;1.80;;;17.00;99.90;;;;;;5028827;28;20049;-73
2022/06/02 08:55:24;;;;;;;2.38;1.90;;;17.10;99.90;;;;;;5026361;28;20064;-73
2022/06/02 08:58:11;;;;;;;3.03;1.85;;;17.10;99.90;;;;;;5031539;28;20033;-73
2022/06/02 09:01:01;;;;;;;3.35;1.70;;;17.20;99.90;;;;;;5032284;28;20037;-73
2022/06/02 09:03:45;;;;;;;3.10;1.70;;;17.70;99.90;;;;;;5024075;28;20049;-73
2022/06/02 09:06:37;;;;;;;3.40;1.90;;;17.70;99.90;;;;;;5028479;28;20096;-73
2022/06/02 09:09:15;;;;;;;4.57;1.80;;;17.70;99.90;;;;;;5028672;28;20044;-73
2022/06/02 09:12:01;;;;;;;3.30;1.70;;;17.70;99.90;;;;;;5027497;28;20048;-72
2022/06/02 09:15:06;;;;;;;2.30;1.92;;;18.00;99.90;;;;;;5031834;28;20140;-73
2022/06/02 09:17:56;;;;;;;2.63;1.77;;;18.20;99.90;;;;;;5026850;28;20070;-72
2022/06/02 09:20:54;;;;;;;2.40;1.40;;;18.30;97.10;;;;;;5024925;28;20116;-72
2022/06/02 09:23:49;;;;;;;2.50;1.80;;;18.40;98.70;;;;;;5010568;28;20053;-72
2022/06/02 09:26:29;;;;;;;1.70;1.58;;;18.50;94.00;;;;;;5028551;28;20046;-72
2022/06/02 09:29:14;;;;;;;2.70;1.58;;;18.50;99.90;;;;;;5028997;28;20551;-72
2022/06/02 09:31:40;;;;;;;2.90;1.35;;;18.40;99.90;;;;;;5029051;28;20083;-72
2022/06/02 09:34:12;;;;;;;3.38;1.30;;;18.30;99.90;;;;;;5029534;28;20041;-72
2022/06/02 09:37:01;;;;;;;2.33;1.38;;;18.30;99.90;;;;;;5027271;28;20037;-72
2022/06/02 09:39:50;;;;;;;3.20;1.42;;;18.50;95.60;;;;;;5021291;28;20046;-72
2022/06/02 09:42:40;;;;;;;1.50;1.40;;;18.70;96.40;;;;;;5029630;28;20065;-72
2022/06/02 09:45:32;;;;;;;2.70;1.30;;;18.90;97.40;;;;;;5022036;28;20087;-72
2022/06/02 09:48:31;;;;;;;3.60;1.38;;;19.10;97.60;;;;;;5024033;28;20503;-72
2022/06/02 09:51:37;;;;;;;2.05;1.45;;;19.30;93.00;;;;;;5025817;28;20071;-72
2022/06/02 09:54:11;;;;;;;5.35;2.20;;;19.70;95.60;;;;;;5024870;28;20063;-72
2022/06/02 09:56:43;;;;;;;6.38;1.88;;;19.60;93.20;;;;;;5025984;28;20049;-72
2022/06/02 09:59:34;;;;;;;5.95;2.30;;;19.50;98.10;;;;;;5030146;28;20038;-72
2022/06/02 10:02:15;;;;;;;9.10;3.10;;;19.30;96.80;;;;;;5017740;28;20033;-72
2022/06/02 10:04:59;;;;;;;2.55;1.55;;;19.00;98.80;;;;;;5024621;28;20064;-72
2022/06/02 10:07:40;;;;;;;3.50;1.80;;;18.80;99.90;;;;;;5031075;28;20034;-72
2022/06/02 10:10:14;;;;;;;2.45;1.23;;;19.00;97.40;;;;;;5031032;28;20114;-72
2022/06/02 10:12:54;;;;;;;2.67;1.25;;;19.20;98.50;;;;;;5028899;28;20131;-72
2022/06/02 10:15:58;;;;;;;3.92;1.40;;;19.30;90.10;;;;;;5029604;28;20060;-72
2022/06/02 10:18:53;;;;;;;2.10;1.20;;;19.60;88.30;;;;;;5027867;28;20245;-72
2022/06/02 10:21:50;;;;;;;2.05;1.25;;;19.70;87.30;;;;;;5012320;28;20053;-72
2022/06/02 10:24:38;;;;;;;2.60;1.20;;;19.60;95.10;;;;;;5026970;28;20041;-72
2022/06/02 10:27:39;;;;;;;2.28;1.15;;;19.40;96.80;;;;;;5027703;28;20176;-72
2022/06/02 10:30:32;;;;;;;2.05;1.20;;;19.10;93.80;;;;;;5021519;28;20041;-72
2022/06/02 10:33:16;;;;;;;;;;;18.80;93.30;;;;;;5024125;28;20053;-72
2022/06/02 10:36:20;;;;;;;2.70;1.20;;;18.60;94.50;;;;;;5025313;28;19963;-72
2022/06/02 10:39:06;;;;;;;3.03;1.20;;;18.60;96.50;;;;;;5028943;28;20037;-72
2022/06/02 10:41:47;;;;;;;2.33;1.13;;;18.90;97.40;;;;;;5029480;28;20037;-72
2022/06/02 10:44:50;;;;;;;2.75;1.10;;;19.20;87.50;;;;;;5031162;28;20037;-72
2022/06/02 10:47:34;;;;;;;;;;;19.50;95.10;;;;;;5019992;28;20045;-72
2022/06/02 10:50:08;;;;;;;1.38;1.00;;;19.60;93.10;;;;;;5028823;28;19917;-72
2022/06/02 10:52:40;;;;;;;2.05;1.00;;;19.60;91.50;;;;;;5022235;28;20480;-72
2022/06/02 10:55:43;;;;;;;2.87;1.10;;;19.50;94.20;;;;;;5021378;28;20077;-72
2022/06/02 10:58:43;;;;;;;3.85;1.13;;;19.70;97.00;;;;;;5030051;28;20518;-72
2022/06/02 11:01:50;;;;;;;1.73;1.00;;;19.60;93.60;;;;;;5026585;28;20112;-72
2022/06/02 11:04:57;;;;;;;2.63;0.80;;;19.40;90.60;;;;;;5005584;28;20052;-72
2022/06/02 11:08:00;;;;;;;2.28;1.02;;;19.30;92.90;;;;;;5024968;28;20076;-72
2022/06/02 11:10:30;;;;;;;;;;;19.50;93.10;;;;;;5019444;28;20037;-72
2022/06/02 11:13:20;;;;;;;2.17;1.10;;;19.90;96.00;;;;;;5023631;28;19926;-72
2022/06/02 11:15:51;;;;;;;1.65;1.08;;;20.40;90.60;;;;;;5040624;28;20042;-72
2022/06/02 11:18:38;;;;;;;1.45;1.00;;;20.70;89.00;;;;;;5029523;28;20037;-72
2022/06/02 11:21:25;;;;;;;3.47;1.30;;;21.20;76.10;;;;;;5029309;28;20048;-72
2022/06/02 11:24:03;;;;;;;1.35;1.10;;;21.40;80.20;;;;;;5031171;28;20037;-72
2022/06/02 11:27:02;;;;;;;2.53;0.88;;;21.20;74.70;;;;;;5030967;28;20049;-71
2022/06/02 11:29:46;;;;;;;3.30;1.00;;;20.90;70.10;;;;;;5023889;28;20129;-72
2022/06/02 11:32:27;;;;;;;1.88;1.00;;;21.10;72.80;;;;;;5031597;28;20087;-72
2022/06/02 11:35:11;;;;;;;2.63;1.00;;;21.30;69.80;;;;;;5028798;28;20034;-72
2022/06/02 11:37:53;;;;;;;1.75;0.90;;;21.30;67.90;;;;;;5024915;28;20049;-72
2022/06/02 11:40:37;;;;;;;1.70;1.00;;;21.60;66.60;;;;;;5027093;28;20067;-72
2022/06/02 11:43:17;;;;;;;2.20;0.85;;;22.10;69.80;;;;;;5030943;28;20056;-72
2022/06/02 11:46:08;;;;;;;2.42;1.00;;;22.60;65.40;;;;;;5030374;28;20077;-72
2022/06/02 11:49:05;;;;;;;2.47;0.70;;;22.90;71.60;;;;;;5017955;28;20048;-72
2022/06/02 11:52:00;;;;;;;1.58;0.90;;;22.80;65.80;;;;;;5031858;28;20159;-71
2022/06/02 11:54:38;;;;;;;2.95;0.90;;;22.50;67.40;;;;;;5029538;28;20120;-71
2022/06/02 11:57:25;;;;;;;1.27;0.80;;;22.30;66.20;;;;;;5026273;28;20045;-72
2022/06/02 12:00:28;;;;;;;3.00;1.02;;;21.80;69.50;;;;;;5029896;28;20045;-71
2022/06/02 12:03:21;;;;;;;3.08;1.27;;;21.60;71.30;;;;;;4996662;28;20076;-72
2022/06/02 12:06:06;;;;;;;1.90;1.02;;;21.30;68.80;;;;;;5026667;28;20037;-71
2022/06/02 12:09:03;;;;;;;0.88;0.80;;;21.00;70.40;;;;;;5030063;28;20132;-71
2022/06/02 12:11:44;;;;;;;1.45;0.95;;;21.20;76.30;;;;;;5047977;28;20053;-71
2022/06/02 12:14:35;;;;;;;1.50;1.00;;;21.70;72.10;;;;;;5030349;28;20099;-71
2022/06/02 12:17:20;;;;;;;0.93;0.80;;;21.90;67.50;;;;;;5023044;28;20042;-71
2022/06/02 12:20:07;;;;;;;1.20;1.00;;;21.90;66.70;;;;;;5037494;28;20038;-71
2022/06/02 12:22:46;;;;;;;0.73;0.73;;;21.70;65.00;;;;;;5029426;28;20063;-71
2022/06/02 12:25:42;;;;;;;2.20;0.82;;;21.70;69.30;;;;;;5029211;28;20113;-71
2022/06/02 12:28:25;;;;;;;2.08;0.80;;;21.80;69.10;;;;;;5040000;28;20049;-71
2022/06/02 12:31:12;;;;;;;1.17;0.80;;;22.00;67.60;;;;;;5030995;28;20053;-71
2022/06/02 12:33:54;;;;;;;2.45;0.90;;;21.90;65.20;;;;;;5047777;28;20095;-71
2022/06/02 12:37:00;;;;;;;2.70;1.10;;;21.90;66.20;;;;;;5030861;28;20041;-71
2022/06/02 12:39:34;;;;;;;1.55;0.95;;;21.90;69.30;;;;;;5026273;28;20038;-71
2022/06/02 12:42:24;;;;;;;2.25;0.90;;;21.80;72.20;;;;;;5028318;28;20045;-72
2022/06/02 12:45:14;;;;;;;3.15;0.88;;;21.80;70.20;;;;;;5031180;28;20034;-72
2022/06/02 12:47:58;;;;;;;3.08;1.10;;;21.80;70.80;;;;;;5029004;28;20041;-72
2022/06/02 12:50:36;;;;;;;2.28;1.08;;;21.80;68.40;;;;;;5025415;28;20041;-72
2022/06/02 12:53:23;;;;;;;2.10;1.00;;;21.90;70.70;;;;;;5024894;28;20436;-72
2022/06/02 12:56:19;;;;;;;1.00;0.73;;;22.10;70.50;;;;;;5016101;28;20523;-72
2022/06/02 12:59:03;;;;;;;0.70;0.70;;;22.40;61.90;;;;;;5024243;28;20037;-72
2022/06/02 13:02:07;;;;;;;1.52;0.80;;;22.30;62.10;;;;;;5030899;28;20081;-72
2022/06/02 13:05:01;;;;;;;1.30;0.70;;;22.60;69.40;;;;;;5025005;28;20485;-72
2022/06/02 13:07:51;;;;;;;3.90;0.80;;;23.10;61.60;;;;;;5045118;28;20045;-72
2022/06/02 13:10:39;;;;;;;1.35;0.80;;;23.40;57.70;;;;;;5027024;28;20041;-72
2022/06/02 13:13:49;;;;;;;2.60;0.75;;;23.30;55.70;;;;;;5031006;28;20041;-72
2022/06/02 13:16:44;;;;;;;5.68;0.88;;;23.60;60.20;;;;;;5027404;28;20045;-72
2022/06/02 13:19:13;;;;;;;0.52;0.40;;;23.80;56.30;;;;;;5030728;28;20033;-72
2022/06/02 13:21:48;;;;;;;3.40;0.70;;;23.70;56.20;;;;;;5026806;28;20052;-72
2022/06/02 13:24:32;;;;;;;1.95;0.60;;;23.90;58.40;;;;;;5023930;28;20067;-72
2022/06/02 13:27:19;;;;;;;0.75;0.60;;;24.00;54.30;;;;;;5031217;28;20074;-72
2022/06/02 13:30:18;;;;;;;1.10;0.77;;;24.10;53.20;;;;;;5027833;28;20038;-72
2022/06/02 13:33:16;;;;;;;3.03;0.90;;;24.10;56.60;;;;;;5030275;28;20068;-71
2022/06/02 13:35:44;;;;;;;2.05;0.82;;;24.30;55.70;;;;;;5026436;28;20029;-71
2022/06/02 13:38:54;;;;;;;2.55;0.80;;;24.70;56.40;;;;;;5027635;28;20037;-72
2022/06/02 13:41:36;;;;;;;2.35;0.90;;;24.90;58.80;;;;;;4953161;28;20081;-72
2022/06/02 13:44:23;;;;;;;1.95;0.63;;;25.00;55.90;;;;;;5024852;28;20085;-71
2022/06/02 13:47:15;;;;;;;1.98;0.80;;;24.90;54.70;;;;;;5029787;28;20099;-71
2022/06/02 13:50:33;;;;;;;1.48;0.73;;;24.60;56.50;;;;;;5041755;28;20053;-71
2022/06/02 13:53:29;;;;;;;3.10;1.00;;;24.10;57.70;;;;;;4988688;28;20104;-72
2022/06/02 13:59:55;;;;;;;1.70;0.90;;;23.60;56.60;;;;;;5023083;28;20045;-71
2022/06/02 14:02:35;;;;;;;1.65;0.75;;;23.20;59.60;;;;;;5028637;28;20140;-71
2022/06/02 14:05:07;;;;;;;2.83;0.80;;;22.80;61.10;;;;;;5029623;28;20034;-71
2022/06/02 14:08:23;;;;;;;1.15;0.80;;;22.60;60.70;;;;;;5024848;28;20065;-71
2022/06/02 14:10:59;;;;;;;2.17;0.70;;;22.60;61.70;;;;;;5023357;28;20091;-69
2022/06/02 14:13:40;;;;;;;3.05;1.00;;;22.80;63.50;;;;;;5031572;28;20049;-71
2022/06/02 14:16:27;;;;;;;1.88;0.63;;;22.70;58.80;;;;;;5027208;28;20124;-71
2022/06/02 14:19:35;;;;;;;1.42;0.70;;;22.50;62.30;;;;;;5004777;28;20041;-71
2022/06/02 14:22:25;;;;;;;1.67;1.02;;;22.40;60.60;;;;;;5028960;28;20076;-71
2022/06/02 14:25:12;;;;;;;0.63;0.60;;;22.10;64.90;;;;;;5029496;28;20042;-72
2022/06/02 14:27:44;;;;;;;0.77;0.65;;;21.80;70.60;;;;;;5024407;28;20120;-71
2022/06/02 14:30:19;;;;;;;3.65;0.73;;;21.60;74.10;;;;;;5029396;28;20498;-71
2022/06/02 14:32:51;;;;;;;1.50;0.70;;;21.40;78.50;;;;;;5043093;28;20095;-71
2022/06/02 14:35:35;;;;;;;2.90;0.90;;;21.20;82.80;;;;;;5025213;28;20044;-71
2022/06/02 14:38:18;;;;;;;0.80;0.70;;;21.00;84.90;;;;;;5024632;28;20037;-71